createdAt,value
2018-09-03T00:00:07.049Z,1.90
2018-09-03T00:02:35.996Z,2.42
2018-09-03T00:05:04.962Z,1.80
2018-09-03T00:07:34.227Z,1.82
2018-09-03T00:10:03.132Z,1.98
2018-09-03T00:12:32.161Z,2.50
2018-09-03T00:15:01.194Z,1.77
2018-09-03T00:17:30.175Z,2.35
2018-09-03T00:19:59.109Z,2.47
2018-09-03T00:22:28.052Z,2.00
2018-09-03T00:24:56.990Z,2.50
2018-09-03T00:27:26.036Z,2.15
2018-09-03T00:29:55.052Z,2.30
2018-09-03T00:32:29.361Z,2.20
2018-09-03T00:36:05.271Z,2.00
2018-09-03T00:38:39.581Z,1.67
2018-09-03T00:41:13.857Z,2.05
2018-09-03T00:43:48.295Z,2.30
2018-09-03T00:46:22.606Z,2.08
2018-09-03T00:48:51.591Z,2.10
2018-09-03T00:51:20.589Z,2.37
2018-09-03T00:53:49.539Z,2.17
2018-09-03T00:56:18.491Z,2.27
2018-09-03T00:58:47.451Z,2.42
2018-09-03T01:01:16.567Z,2.67
2018-09-03T01:03:45.710Z,1.92
2018-09-03T01:06:14.709Z,2.67
2018-09-03T01:08:43.704Z,2.70
2018-09-03T01:11:12.651Z,2.60
2018-09-03T01:13:41.651Z,2.45
2018-09-03T01:16:10.546Z,2.27
2018-09-03T01:18:44.812Z,2.37
2018-09-03T01:21:13.754Z,2.42
2018-09-03T01:23:42.744Z,2.10
2018-09-03T01:26:11.863Z,2.22
2018-09-03T01:28:40.833Z,2.47
2018-09-03T01:31:09.876Z,2.17
2018-09-03T01:33:38.847Z,2.90
2018-09-03T01:36:07.886Z,2.30
2018-09-03T01:38:37.063Z,2.40
2018-09-03T01:41:05.982Z,2.60
2018-09-03T01:43:35.015Z,2.27
2018-09-03T01:46:04.203Z,2.45
2018-09-03T01:48:33.306Z,2.27
2018-09-03T01:51:02.943Z,2.47
2018-09-03T01:53:31.975Z,2.12
2018-09-03T01:56:00.962Z,2.98
2018-09-03T01:58:29.950Z,2.87
2018-09-03T02:00:59.008Z,2.27
2018-09-03T02:03:28.849Z,2.47
2018-09-03T02:05:57.826Z,2.15
2018-09-03T02:08:26.954Z,2.87
2018-09-03T02:10:56.063Z,2.20
2018-09-03T02:13:25.328Z,2.20
2018-09-03T02:15:54.256Z,2.62
2018-09-03T02:18:23.200Z,2.45
2018-09-03T02:20:52.163Z,2.75
2018-09-03T02:23:21.319Z,2.40
2018-09-03T02:25:50.240Z,3.37
2018-09-03T02:28:19.285Z,2.77
2018-09-03T02:30:48.261Z,2.60
2018-09-03T02:33:17.342Z,2.75
2018-09-03T02:35:46.469Z,2.55
2018-09-03T02:38:16.070Z,3.02
2018-09-03T02:40:44.991Z,3.80
2018-09-03T02:43:14.271Z,2.52
2018-09-03T02:45:43.262Z,2.62
2018-09-03T02:48:12.279Z,2.40
2018-09-03T02:50:41.324Z,2.58
2018-09-03T02:53:10.264Z,2.62
2018-09-03T02:55:39.205Z,2.65
2018-09-03T02:58:08.198Z,2.20
2018-09-03T03:00:37.296Z,2.40
2018-09-03T03:03:06.313Z,2.30
2018-09-03T03:05:35.245Z,4.10
2018-09-03T03:08:04.304Z,2.70
2018-09-03T03:10:33.248Z,3.55
2018-09-03T03:13:02.341Z,3.15
2018-09-03T03:15:31.281Z,3.40
2018-09-03T03:18:00.230Z,2.60
2018-09-03T03:20:29.238Z,3.42
2018-09-03T03:22:58.192Z,2.87
2018-09-03T03:25:27.170Z,2.60
2018-09-03T03:27:56.096Z,2.90
2018-09-03T03:30:25.161Z,3.33
2018-09-03T03:32:54.148Z,2.37
2018-09-03T03:35:23.100Z,2.42
2018-09-03T03:37:52.074Z,2.75
2018-09-03T03:40:21.003Z,2.95
2018-09-03T03:42:49.939Z,3.10
2018-09-03T03:45:18.846Z,2.85
2018-09-03T03:47:47.758Z,3.05
2018-09-03T03:50:16.811Z,2.65
2018-09-03T03:52:45.733Z,2.92
2018-09-03T03:55:14.767Z,2.50
2018-09-03T03:57:43.694Z,3.10
2018-09-03T04:00:12.668Z,3.40
2018-09-03T04:02:41.635Z,3.37
2018-09-03T04:05:10.700Z,2.77
2018-09-03T04:07:39.674Z,2.75
2018-09-03T04:10:08.797Z,2.58
2018-09-03T04:12:37.722Z,2.80
2018-09-03T04:15:06.669Z,3.25
2018-09-03T04:17:35.653Z,2.80
2018-09-03T04:20:05.558Z,2.80
2018-09-03T04:22:34.655Z,3.00
2018-09-03T04:25:04.075Z,2.65
2018-09-03T04:27:33.069Z,2.95
2018-09-03T04:30:02.037Z,2.85
2018-09-03T04:32:31.109Z,3.17
2018-09-03T04:35:00.127Z,3.05
2018-09-03T04:37:29.027Z,3.02
2018-09-03T04:39:58.007Z,2.67
2018-09-03T04:42:26.893Z,2.98
2018-09-03T04:44:55.875Z,3.00
2018-09-03T04:47:24.807Z,2.90
2018-09-03T04:49:53.994Z,2.80
2018-09-03T04:52:22.975Z,2.70
2018-09-03T04:54:51.906Z,2.52
2018-09-03T04:57:20.844Z,3.12
2018-09-03T04:59:49.784Z,2.75
2018-09-03T05:02:18.722Z,2.85
2018-09-03T05:04:47.689Z,2.72
2018-09-03T05:07:16.662Z,2.87
2018-09-03T05:09:45.988Z,2.75
2018-09-03T05:12:14.899Z,2.70
2018-09-03T05:14:43.816Z,2.70
2018-09-03T05:17:12.882Z,2.45
2018-09-03T05:19:41.854Z,2.83
2018-09-03T05:22:10.755Z,2.62
2018-09-03T05:24:39.759Z,2.62
2018-09-03T05:27:08.768Z,3.00
2018-09-03T05:29:37.926Z,2.72
2018-09-03T05:32:06.890Z,2.77
2018-09-03T05:34:35.841Z,2.35
2018-09-03T05:37:04.781Z,3.02
2018-09-03T05:39:33.777Z,2.60
2018-09-03T05:42:02.795Z,2.65
2018-09-03T05:44:31.821Z,2.60
2018-09-03T05:47:00.753Z,2.25
2018-09-03T05:49:29.708Z,2.62
2018-09-03T05:51:58.670Z,3.10
2018-09-03T05:54:27.581Z,2.40
2018-09-03T05:56:56.526Z,2.40
2018-09-03T05:59:25.540Z,2.27
2018-09-03T06:01:54.434Z,2.85
2018-09-03T06:04:23.426Z,2.95
2018-09-03T06:06:52.390Z,2.85
2018-09-03T06:09:21.352Z,3.05
2018-09-03T06:11:50.324Z,2.37
2018-09-03T06:14:19.316Z,3.15
2018-09-03T06:16:48.209Z,2.40
2018-09-03T06:19:17.134Z,3.10
2018-09-03T06:21:46.213Z,2.47
2018-09-03T06:24:15.140Z,3.15
2018-09-03T06:26:44.116Z,3.10
2018-09-03T06:29:13.007Z,2.52
2018-09-03T06:31:41.957Z,2.65
2018-09-03T06:34:10.874Z,2.80
2018-09-03T06:36:39.865Z,3.30
2018-09-03T06:39:09.425Z,2.85
2018-09-03T06:41:38.321Z,3.00
2018-09-03T06:44:07.226Z,2.47
2018-09-03T06:46:36.534Z,2.98
2018-09-03T06:49:05.466Z,3.08
2018-09-03T06:51:34.397Z,2.80
2018-09-03T06:54:03.359Z,2.85
2018-09-03T06:56:32.279Z,2.40
2018-09-03T06:59:01.192Z,2.10
2018-09-03T07:01:30.387Z,2.77
2018-09-03T07:03:59.414Z,2.95
2018-09-03T07:06:28.321Z,3.35
2018-09-03T07:08:57.264Z,2.85
2018-09-03T07:11:26.182Z,3.12
2018-09-03T07:13:55.153Z,2.40
2018-09-03T07:16:24.078Z,2.50
2018-09-03T07:18:53.048Z,3.52
2018-09-03T07:21:21.969Z,3.02
2018-09-03T07:23:51.196Z,2.65
2018-09-03T07:26:20.114Z,2.75
2018-09-03T07:28:49.122Z,2.35
2018-09-03T07:31:18.045Z,2.80
2018-09-03T07:33:46.960Z,3.40
2018-09-03T07:36:15.929Z,2.65
2018-09-03T07:38:45.258Z,2.70
2018-09-03T07:41:14.199Z,2.70
2018-09-03T07:43:43.124Z,2.72
2018-09-03T07:46:12.085Z,2.72
2018-09-03T07:48:41.016Z,2.47
2018-09-03T07:51:10.444Z,3.10
2018-09-03T07:53:39.242Z,3.50
2018-09-03T07:56:08.172Z,3.10
2018-09-03T07:58:37.364Z,2.95
2018-09-03T08:01:06.474Z,2.98
2018-09-03T08:03:35.360Z,3.12
2018-09-03T08:06:04.265Z,3.50
2018-09-03T08:08:33.228Z,2.70
2018-09-03T08:11:02.481Z,2.92
2018-09-03T08:13:36.754Z,2.72
2018-09-03T08:16:06.049Z,3.10
2018-09-03T08:18:34.981Z,2.75
2018-09-03T08:21:04.119Z,3.85
2018-09-03T08:23:33.046Z,3.15
2018-09-03T08:26:01.954Z,3.58
2018-09-03T08:28:31.058Z,4.03
2018-09-03T08:31:00.162Z,2.75
2018-09-03T08:33:29.064Z,3.45
2018-09-03T08:35:58.583Z,3.05
2018-09-03T08:38:27.504Z,3.05
2018-09-03T08:40:56.437Z,3.40
2018-09-03T08:43:25.401Z,3.58
2018-09-03T08:45:54.411Z,4.00
2018-09-03T08:48:23.437Z,3.70
2018-09-03T08:50:52.330Z,2.98
2018-09-03T08:53:21.369Z,3.42
2018-09-03T08:55:50.274Z,3.10
2018-09-03T08:58:19.231Z,3.27
2018-09-03T09:00:48.217Z,3.17
2018-09-03T09:03:22.580Z,3.52
2018-09-03T09:05:51.571Z,3.25
2018-09-03T09:08:20.635Z,3.15
2018-09-03T09:10:49.597Z,3.55
2018-09-03T09:13:19.965Z,3.17
2018-09-03T09:15:49.458Z,3.60
2018-09-03T09:18:18.446Z,4.08
2018-09-03T09:20:47.427Z,3.45
2018-09-03T09:23:16.707Z,3.70
2018-09-03T09:25:45.667Z,3.70
2018-09-03T09:28:14.962Z,3.60
2018-09-03T09:30:43.910Z,3.62
2018-09-03T09:39:08.438Z,4.15
2018-09-03T09:41:37.356Z,3.70
2018-09-03T09:44:06.421Z,3.50
2018-09-03T09:46:35.391Z,3.30
2018-09-03T09:49:04.283Z,3.47
2018-09-03T09:51:33.238Z,3.33
2018-09-03T09:54:02.201Z,3.85
2018-09-03T09:56:31.107Z,3.27
2018-09-03T09:59:00.022Z,3.83
2018-09-03T10:01:37.445Z,3.67
2018-09-03T10:04:07.274Z,3.95
2018-09-03T10:06:36.574Z,3.85
2018-09-03T10:09:07.283Z,4.58
2018-09-03T10:11:36.264Z,4.17
2018-09-03T10:14:05.178Z,4.10
2018-09-03T10:16:34.266Z,4.00
2018-09-03T10:19:03.211Z,3.40
2018-09-03T10:21:32.450Z,3.98
2018-09-03T10:24:01.341Z,4.55
2018-09-03T10:26:30.281Z,4.00
2018-09-03T10:28:59.279Z,4.33
2018-09-03T10:31:28.213Z,4.17
2018-09-03T10:33:57.109Z,3.98
2018-09-03T10:36:26.077Z,4.17
2018-09-03T10:38:54.979Z,3.67
2018-09-03T10:41:23.955Z,4.47
2018-09-03T10:43:53.163Z,4.53
2018-09-03T10:46:22.447Z,4.00
2018-09-03T10:48:51.375Z,4.20
2018-09-03T10:51:20.315Z,4.10
2018-09-03T10:53:49.232Z,4.47
2018-09-03T10:56:18.148Z,3.72
2018-09-03T10:58:47.107Z,3.75
2018-09-03T11:01:16.004Z,3.70
2018-09-03T11:03:48.744Z,3.95
2018-09-03T11:06:17.918Z,4.45
2018-09-03T11:08:46.893Z,4.40
2018-09-03T11:11:15.795Z,3.65
2018-09-03T11:13:44.739Z,4.20
2018-09-03T11:16:13.692Z,4.45
2018-09-03T11:18:42.642Z,4.37
2018-09-03T11:21:11.695Z,4.30
2018-09-03T11:23:40.595Z,4.70
2018-09-03T11:26:09.533Z,3.92
2018-09-03T11:28:38.556Z,4.87
2018-09-03T11:31:07.495Z,4.90
2018-09-03T11:33:36.397Z,4.40
2018-09-03T11:36:05.315Z,4.20
2018-09-03T11:38:34.347Z,4.33
2018-09-03T11:41:03.243Z,4.85
2018-09-03T11:43:34.298Z,4.55
2018-09-03T11:46:03.231Z,4.85
2018-09-03T11:48:32.150Z,4.53
2018-09-03T11:51:01.199Z,5.53
2018-09-03T11:53:30.129Z,4.83
2018-09-03T11:55:59.443Z,4.90
2018-09-03T11:58:28.523Z,4.72
2018-09-03T12:00:59.748Z,4.95
2018-09-03T12:03:28.724Z,5.25
2018-09-03T12:05:57.682Z,4.67
2018-09-03T12:08:26.598Z,4.67
2018-09-03T12:10:55.513Z,5.55
2018-09-03T12:13:24.431Z,5.70
2018-09-03T12:16:24.297Z,4.60
2018-09-03T12:18:55.429Z,4.47
2018-09-03T12:21:24.387Z,4.92
2018-09-03T12:23:53.348Z,5.58
2018-09-03T12:26:22.294Z,4.78
2018-09-03T12:28:51.270Z,5.28
2018-09-03T12:31:20.230Z,4.95
2018-09-03T12:33:49.203Z,4.62
2018-09-03T12:36:18.107Z,5.55
2018-09-03T12:38:47.070Z,4.67
2018-09-03T12:41:16.020Z,5.05
2018-09-03T12:43:44.989Z,5.08
2018-09-03T12:46:14.306Z,4.35
2018-09-03T12:48:44.150Z,5.20
2018-09-03T12:51:13.080Z,4.30
2018-09-03T12:53:42.049Z,3.80
2018-09-03T12:56:10.997Z,4.37
2018-09-03T12:58:40.048Z,4.60
2018-09-03T13:01:08.954Z,4.42
2018-09-03T13:03:37.868Z,4.35
2018-09-03T13:06:06.840Z,5.15
2018-09-03T13:08:35.739Z,5.12
2018-09-03T13:11:04.713Z,5.00
2018-09-03T13:13:33.628Z,5.00
2018-09-03T13:16:02.659Z,5.17
2018-09-03T13:18:31.658Z,5.05
2018-09-03T13:21:00.561Z,5.17
2018-09-03T13:23:29.500Z,5.20
2018-09-03T13:25:58.872Z,4.75
2018-09-03T13:28:27.879Z,4.70
2018-09-03T13:30:56.821Z,5.55
2018-09-03T13:33:25.732Z,5.53
2018-09-03T13:35:54.662Z,6.05
2018-09-03T13:38:23.610Z,4.90
2018-09-03T13:40:52.548Z,4.95
2018-09-03T13:43:21.506Z,5.12
2018-09-03T13:45:50.457Z,5.35
2018-09-03T13:48:19.488Z,5.33
2018-09-03T13:50:48.460Z,5.40
2018-09-03T13:53:17.409Z,5.42
2018-09-03T13:55:46.367Z,5.47
2018-09-03T13:58:15.328Z,5.20
2018-09-03T14:00:44.406Z,4.83
2018-09-03T14:03:13.392Z,4.42
2018-09-03T14:05:42.274Z,5.20
2018-09-03T14:08:11.287Z,4.90
2018-09-03T14:10:40.250Z,4.80
2018-09-03T14:13:09.219Z,4.65
2018-09-03T14:15:38.189Z,4.78
2018-09-03T14:18:07.209Z,4.85
2018-09-03T14:20:36.608Z,4.72
2018-09-03T14:23:05.929Z,5.05
2018-09-03T14:25:34.885Z,4.97
2018-09-03T14:28:03.826Z,4.58
2018-09-03T14:30:32.798Z,4.90
2018-09-03T14:33:01.781Z,5.00
2018-09-03T14:35:30.695Z,5.37
2018-09-03T14:37:59.644Z,5.47
2018-09-03T14:40:28.941Z,4.67
2018-09-03T14:42:57.943Z,5.40
2018-09-03T14:45:26.933Z,5.00
2018-09-03T14:47:56.000Z,5.35
2018-09-03T14:50:25.564Z,5.30
2018-09-03T14:52:54.466Z,4.85
2018-09-03T14:55:23.620Z,5.37
2018-09-03T14:57:52.620Z,4.92
2018-09-03T15:00:21.552Z,5.28
2018-09-03T15:02:51.149Z,5.37
2018-09-03T15:05:20.084Z,5.42
2018-09-03T15:07:49.886Z,4.62
2018-09-03T15:10:18.835Z,5.80
2018-09-03T15:12:47.756Z,4.83
2018-09-03T15:15:16.687Z,4.97
2018-09-03T15:17:45.631Z,4.95
2018-09-03T15:20:14.605Z,4.58
2018-09-03T15:22:48.000Z,4.65
2018-09-03T15:25:17.098Z,5.28
2018-09-03T15:27:46.049Z,4.90
2018-09-03T15:30:15.153Z,4.97
2018-09-03T15:32:45.019Z,5.62
2018-09-03T15:35:14.109Z,5.70
2018-09-03T15:37:43.044Z,5.40
2018-09-03T15:40:12.084Z,5.40
2018-09-03T15:42:41.099Z,4.45
2018-09-03T15:45:10.095Z,5.03
2018-09-03T15:47:39.118Z,5.28
2018-09-03T15:50:08.085Z,5.95
2018-09-03T15:52:37.080Z,5.58
2018-09-03T15:55:06.489Z,5.15
2018-09-03T15:57:35.449Z,4.78
2018-09-03T16:00:05.125Z,4.92
2018-09-03T16:02:34.210Z,4.70
2018-09-03T16:05:03.235Z,4.53
2018-09-03T16:07:32.210Z,4.75
2018-09-03T16:10:01.495Z,5.33
2018-09-03T16:12:30.441Z,5.03
2018-09-03T16:14:59.433Z,4.58
2018-09-03T16:17:28.442Z,4.33
2018-09-03T16:19:57.541Z,5.47
2018-09-03T16:22:30.397Z,4.85
2018-09-03T16:24:59.396Z,4.85
2018-09-03T16:27:28.485Z,4.60
2018-09-03T16:29:57.502Z,4.87
2018-09-03T16:32:26.453Z,5.33
2018-09-03T16:34:55.442Z,4.85
2018-09-03T16:37:24.453Z,4.90
2018-09-03T16:39:53.442Z,5.03
2018-09-03T16:42:22.435Z,5.05
2018-09-03T16:44:51.455Z,4.33
2018-09-03T16:47:20.414Z,4.33
2018-09-03T16:49:49.393Z,4.45
2018-09-03T16:52:18.413Z,4.85
2018-09-03T16:54:50.838Z,4.55
2018-09-03T16:57:19.855Z,4.60
2018-09-03T16:59:48.886Z,4.53
2018-09-03T17:02:17.948Z,4.80
2018-09-03T17:04:47.105Z,4.45
2018-09-03T17:07:16.366Z,4.80
2018-09-03T17:09:45.336Z,4.92
2018-09-03T17:12:14.297Z,4.85
2018-09-03T17:14:43.285Z,4.15
2018-09-03T17:17:12.307Z,5.00
2018-09-03T17:19:41.274Z,4.87
2018-09-03T17:22:10.348Z,4.28
2018-09-03T17:24:39.587Z,5.05
2018-09-03T17:27:08.537Z,4.42
2018-09-03T17:29:38.700Z,4.50
2018-09-03T17:32:07.686Z,5.55
2018-09-03T17:34:36.671Z,4.47
2018-09-03T17:37:05.712Z,4.47
2018-09-03T17:39:34.693Z,4.10
2018-09-03T17:42:04.033Z,5.00
2018-09-03T17:44:33.021Z,4.75
2018-09-03T17:47:02.632Z,5.05
2018-09-03T17:49:31.774Z,4.65
2018-09-03T17:52:00.724Z,5.70
2018-09-03T17:54:29.987Z,4.62
2018-09-03T17:56:58.973Z,4.58
2018-09-03T17:59:27.962Z,4.33
2018-09-03T18:01:56.939Z,4.75
2018-09-03T18:04:25.896Z,5.50
2018-09-03T18:06:54.866Z,5.20
2018-09-03T18:09:23.832Z,4.67
2018-09-03T18:11:52.817Z,4.45
2018-09-03T18:14:21.849Z,4.30
2018-09-03T18:16:51.354Z,4.47
2018-09-03T18:19:20.377Z,4.72
2018-09-03T18:21:49.510Z,4.60
2018-09-03T18:24:18.411Z,4.47
2018-09-03T18:26:47.407Z,4.55
2018-09-03T18:29:16.426Z,4.55
2018-09-03T18:31:45.407Z,4.62
2018-09-03T18:34:14.386Z,4.37
2018-09-03T18:36:43.526Z,4.45
2018-09-03T18:39:12.707Z,5.20
2018-09-03T18:41:41.765Z,5.20
2018-09-03T18:44:10.723Z,4.85
2018-09-03T18:46:39.711Z,4.97
2018-09-03T18:49:08.818Z,4.65
2018-09-03T18:51:37.806Z,4.42
2018-09-03T18:54:06.765Z,4.47
2018-09-03T18:56:35.762Z,4.83
2018-09-03T18:59:04.944Z,4.72
2018-09-03T19:01:33.933Z,4.58
2018-09-03T19:04:02.897Z,4.22
2018-09-03T19:06:31.894Z,4.42
2018-09-03T19:09:00.894Z,4.53
2018-09-03T19:11:30.992Z,4.45
2018-09-03T19:13:59.897Z,4.55
2018-09-03T19:16:28.880Z,4.65
2018-09-03T19:18:57.949Z,4.08
2018-09-03T19:21:26.936Z,4.08
2018-09-03T19:23:55.881Z,4.17
2018-09-03T19:26:24.862Z,4.97
2018-09-03T19:28:53.864Z,5.10
2018-09-03T19:31:23.103Z,4.25
2018-09-03T19:33:52.145Z,4.03
2018-09-03T19:36:21.105Z,4.03
2018-09-03T19:38:50.156Z,4.05
2018-09-03T19:41:19.524Z,3.98
2018-09-03T19:43:48.675Z,4.47
2018-09-03T19:46:17.738Z,3.42
2018-09-03T19:48:46.853Z,3.62
2018-09-03T19:51:15.781Z,3.27
2018-09-03T19:53:44.926Z,2.72
2018-09-03T19:56:13.895Z,3.22
2018-09-03T19:58:43.113Z,2.90
2018-09-03T20:01:12.090Z,2.98
2018-09-03T20:03:41.127Z,3.58
2018-09-03T20:06:10.188Z,3.05
2018-09-03T20:08:39.381Z,2.55
2018-09-03T20:11:08.697Z,2.65
2018-09-03T20:13:37.867Z,2.92
2018-09-03T20:16:06.837Z,3.00
2018-09-03T20:18:35.978Z,2.90
2018-09-03T20:21:05.047Z,2.45
2018-09-03T20:23:34.289Z,2.80
2018-09-03T20:26:03.129Z,2.17
2018-09-03T20:28:32.140Z,2.40
2018-09-03T20:31:01.046Z,2.67
2018-09-03T20:33:30.877Z,2.55
2018-09-03T20:36:00.283Z,2.55
2018-09-03T20:38:30.258Z,3.02
2018-09-03T20:40:59.247Z,2.98
2018-09-03T20:43:28.261Z,2.25
2018-09-03T20:45:57.255Z,2.70
2018-09-03T20:48:26.234Z,2.50
2018-09-03T20:50:55.206Z,2.33
2018-09-03T20:53:24.141Z,2.60
2018-09-03T20:55:53.078Z,2.37
2018-09-03T20:58:22.047Z,2.30
2018-09-03T21:00:51.126Z,2.02
2018-09-03T21:03:20.053Z,2.22
2018-09-03T21:05:49.066Z,1.80
2018-09-03T21:08:18.036Z,2.02
2018-09-03T21:10:47.136Z,2.00
2018-09-03T21:13:16.047Z,2.08
2018-09-03T21:15:44.975Z,2.25
2018-09-03T21:18:14.188Z,2.20
2018-09-03T21:20:43.098Z,2.40
2018-09-03T21:23:12.048Z,2.12
2018-09-03T21:25:41.151Z,2.30
2018-09-03T21:28:10.107Z,2.40
2018-09-03T21:30:39.054Z,2.02
2018-09-03T21:33:08.197Z,2.10
2018-09-03T21:35:37.173Z,2.22
2018-09-03T21:38:06.147Z,1.98
2018-09-03T21:40:35.123Z,2.37
2018-09-03T21:43:04.057Z,1.92
2018-09-03T21:45:33.186Z,2.40
2018-09-03T21:48:02.113Z,2.17
2018-09-03T21:50:31.077Z,1.90
2018-09-03T21:53:00.065Z,2.00
2018-09-03T21:55:29.065Z,2.00
2018-09-03T21:57:58.262Z,2.30
2018-09-03T22:00:27.299Z,2.30
2018-09-03T22:02:56.217Z,1.80
2018-09-03T22:05:25.234Z,2.08
2018-09-03T22:07:54.202Z,2.20
2018-09-03T22:10:23.258Z,1.90
2018-09-03T22:12:52.261Z,2.02
2018-09-03T22:15:21.252Z,2.22
2018-09-03T22:17:50.221Z,2.42
2018-09-03T22:20:19.176Z,2.17
2018-09-03T22:22:48.249Z,1.90
2018-09-03T22:25:17.225Z,1.80
2018-09-03T22:27:46.161Z,2.17
2018-09-03T22:32:52.869Z,2.42
2018-09-03T22:35:21.840Z,2.05
2018-09-03T22:37:50.807Z,2.00
2018-09-03T22:40:20.042Z,1.60
2018-09-03T22:42:49.062Z,2.10
2018-09-03T22:45:17.971Z,2.05
2018-09-03T22:47:46.891Z,2.20
2018-09-03T22:50:15.890Z,2.12
2018-09-03T22:52:45.206Z,2.00
2018-09-03T22:55:14.261Z,2.00
2018-09-03T22:57:43.260Z,1.80
2018-09-03T23:00:12.223Z,2.17
2018-09-03T23:02:46.076Z,2.15
2018-09-03T23:05:15.006Z,2.02
2018-09-03T23:07:43.958Z,2.33
2018-09-03T23:10:12.867Z,1.90
2018-09-03T23:12:41.875Z,1.90
2018-09-03T23:15:10.850Z,2.00
2018-09-03T23:17:39.810Z,2.02
2018-09-03T23:20:08.750Z,2.27
2018-09-03T23:22:37.736Z,2.05
2018-09-03T23:25:06.692Z,1.85
2018-09-03T23:27:35.656Z,2.02
2018-09-03T23:30:04.591Z,2.00
2018-09-03T23:32:33.532Z,2.45
2018-09-03T23:35:02.479Z,2.17
2018-09-03T23:37:31.423Z,2.20
2018-09-03T23:40:00.385Z,2.22
2018-09-03T23:42:29.368Z,2.72
2018-09-03T23:44:58.275Z,2.27
2018-09-03T23:47:27.218Z,2.12
2018-09-03T23:49:56.236Z,3.50
2018-09-03T23:52:25.195Z,1.85
2018-09-03T23:54:54.718Z,2.20
2018-09-03T23:57:23.743Z,2.08
2018-09-03T23:59:52.786Z,2.20
